Time;durP1;ratioP1;P1;durP2;ratioP2;P2;SDS_P1;SDS_P2;PMS_P1;PMS_P2;Temp;Humidity;BMP_temperature;BMP_pressure;BME280_temperature;BME280_humidity;BME280_pressure;Samples;Min_cycle;Max_cycle;Signal;HPM_P1;HPM_P2
2022/03/01 00:02:03;;;;;;;13.82;7.22;;;;;;;0.86;62.14;100770.63;5005266;28;20029;-66
2022/03/01 00:04:28;;;;;;;9.95;7.53;;;;;;;0.76;62.21;100771.44;5003847;28;20533;-66
2022/03/01 00:06:54;;;;;;;9.90;7.07;;;;;;;0.62;63.19;100764.44;5004457;28;20116;-65
2022/03/01 00:09:19;;;;;;;12.75;8.35;;;;;;;1.01;62.43;100759.47;5003430;28;20624;-65
2022/03/01 00:11:44;;;;;;;12.63;7.88;;;;;;;0.94;61.46;100757.72;4985566;28;20061;-72
2022/03/01 00:14:10;;;;;;;14.45;8.90;;;;;;;0.62;61.99;100758.38;4984132;28;20073;-73
2022/03/01 00:16:35;;;;;;;13.20;8.60;;;;;;;0.47;61.61;100753.06;4968612;28;20030;-74
2022/03/01 00:21:36;;;;;;;14.00;8.30;;;;;;;0.36;62.35;100759.03;5413726;23;20046;-72
2022/03/01 00:24:02;;;;;;;14.55;7.45;;;;;;;0.36;62.23;100765.97;4999739;28;20045;-71
2022/03/01 00:26:28;;;;;;;14.00;9.00;;;;;;;0.40;61.38;100765.13;5003957;28;20551;-71
2022/03/01 00:28:53;;;;;;;12.48;7.13;;;;;;;0.46;60.71;100762.56;5002613;28;20066;-71
2022/03/01 00:31:18;;;;;;;15.68;8.30;;;;;;;0.51;61.28;100771.25;5004410;28;20046;-70
2022/03/01 00:33:44;;;;;;;12.73;8.07;;;;;;;0.57;60.61;100763.53;5006686;28;20095;-72
2022/03/01 00:36:10;;;;;;;14.98;9.50;;;;;;;0.66;61.18;100773.09;5008153;28;20037;-72
2022/03/01 00:38:35;;;;;;;11.35;7.53;;;;;;;0.69;60.66;100767.06;5004045;28;20049;-71
2022/03/01 00:41:01;;;;;;;15.73;8.05;;;;;;;0.71;60.62;100773.13;4983798;28;20053;-71
2022/03/01 00:43:26;;;;;;;14.88;8.80;;;;;;;0.68;60.75;100767.94;5003381;28;20052;-70
2022/03/01 00:45:53;;;;;;;11.77;7.55;;;;;;;0.65;60.79;100761.00;5003463;28;20026;-70
2022/03/01 00:48:19;;;;;;;11.90;7.30;;;;;;;0.69;60.46;100767.06;5001573;28;20042;-70
2022/03/01 00:50:45;;;;;;;17.38;8.25;;;;;;;0.70;60.89;100771.41;5003196;28;20038;-71
2022/03/01 00:53:10;;;;;;;13.38;8.95;;;;;;;0.67;61.76;100782.63;4985359;28;20603;-70
2022/03/01 00:55:36;;;;;;;12.45;7.90;;;;;;;0.61;61.05;100780.84;4979035;28;20061;-69
2022/03/01 00:58:02;;;;;;;17.38;8.63;;;;;;;0.59;61.52;100780.00;5005315;28;20607;-71
2022/03/01 01:00:29;;;;;;;15.52;8.02;;;;;;;0.59;61.76;100776.50;5010502;28;20519;-70
2022/03/01 01:02:54;;;;;;;13.25;8.60;;;;;;;0.52;61.80;100780.81;5009620;28;20111;-71
2022/03/01 01:05:20;;;;;;;12.18;7.55;;;;;;;0.50;61.67;100776.47;4994155;28;20464;-71
2022/03/01 01:07:49;;;;;;;16.67;9.18;;;;;;;0.46;61.42;100779.88;4993057;28;20030;-71
2022/03/01 01:10:16;;;;;;;14.32;7.88;;;;;;;0.43;61.68;100784.19;4990049;28;20034;-70
2022/03/01 01:12:42;;;;;;;14.20;7.75;;;;;;;0.36;62.04;100784.13;4991346;28;20073;-70
2022/03/01 01:15:09;;;;;;;12.95;7.70;;;;;;;0.37;61.93;100781.56;4992518;28;20088;-70
2022/03/01 01:17:34;;;;;;;16.25;8.82;;;;;;;0.29;61.44;100783.19;4992941;28;20038;-71
2022/03/01 01:19:59;;;;;;;12.35;7.90;;;;;;;0.15;62.24;100774.44;4998497;28;20026;-70
2022/03/01 01:22:40;;;;;;;11.50;7.40;;;;;;;0.01;63.18;100770.84;5009674;28;20058;-71
2022/03/01 01:25:08;;;;;;;12.20;7.13;;;;;;;-0.01;63.46;100766.50;5005374;28;20041;-71
2022/03/01 01:27:34;;;;;;;13.02;6.95;;;;;;;-0.01;63.21;100766.50;5010370;28;20180;-70
2022/03/01 01:30:00;;;;;;;11.25;7.30;;;;;;;-0.07;63.56;100779.41;5010041;28;20029;-71
2022/03/01 01:32:25;;;;;;;12.30;7.57;;;;;;;-0.05;63.07;100776.81;5009700;28;20547;-71
2022/03/01 01:34:52;;;;;;;13.40;8.05;;;;;;;-0.11;63.51;100771.59;5010578;28;20520;-71
2022/03/01 01:37:18;;;;;;;12.50;7.38;;;;;;;-0.16;63.97;100770.66;5010147;28;20050;-71
2022/03/01 01:39:43;;;;;;;13.52;8.30;;;;;;;-0.18;64.32;100765.47;5009822;28;20042;-71
2022/03/01 01:42:09;;;;;;;19.02;10.63;;;;;;;-0.25;64.92;100761.97;5007446;28;20539;-71
2022/03/01 01:44:34;;;;;;;13.35;8.52;;;;;;;-0.31;65.07;100761.88;5010101;28;20045;-71
2022/03/01 01:47:00;;;;;;;17.33;7.63;;;;;;;-0.29;65.51;100762.78;5009507;28;20034;-72
2022/03/01 01:49:25;;;;;;;10.40;7.50;;;;;;;-0.29;65.12;100759.31;5010726;28;20046;-71
2022/03/01 01:51:50;;;;;;;13.02;7.80;;;;;;;-0.29;64.91;100765.34;4993007;28;20034;-71
2022/03/01 01:54:17;;;;;;;16.02;8.85;;;;;;;-0.28;65.26;100766.22;5009852;28;20105;-71
2022/03/01 01:56:42;;;;;;;13.77;8.73;;;;;;;-0.24;65.10;100770.59;5010466;28;20042;-71
2022/03/01 01:59:07;;;;;;;15.13;8.30;;;;;;;-0.22;64.82;100774.94;5010121;28;20044;-71
2022/03/01 02:01:33;;;;;;;14.23;8.85;;;;;;;-0.27;64.55;100763.66;4973541;28;20050;-71
2022/03/01 02:03:59;;;;;;;11.05;7.32;;;;;;;-0.34;65.29;100761.84;4990284;28;20608;-71
2022/03/01 02:06:25;;;;;;;11.15;7.25;;;;;;;-0.44;64.88;100750.53;4982987;28;20041;-72
2022/03/01 02:08:50;;;;;;;17.65;8.63;;;;;;;-0.51;65.45;100753.88;4992570;28;20053;-72
2022/03/01 02:11:16;;;;;;;15.95;8.73;;;;;;;-0.55;65.14;100757.28;5010020;28;20121;-72
2022/03/01 02:13:41;;;;;;;12.57;8.35;;;;;;;-0.53;65.21;100763.34;5012402;28;20128;-71
2022/03/01 02:16:08;;;;;;;13.38;7.78;;;;;;;-0.46;64.22;100754.81;5011497;28;20030;-71
2022/03/01 02:18:33;;;;;;;21.02;8.18;;;;;;;-0.39;64.27;100750.56;5010815;28;20045;-69
2022/03/01 02:20:59;;;;;;;11.70;6.78;;;;;;;-0.36;64.10;100748.00;5014060;28;20553;-71
2022/03/01 02:23:24;;;;;;;17.90;8.00;;;;;;;-0.37;63.93;100742.81;5011431;28;20180;-70
2022/03/01 02:25:49;;;;;;;14.70;8.27;;;;;;;-0.49;64.80;100728.03;5010695;28;20037;-69
2022/03/01 02:28:15;;;;;;;16.17;8.77;;;;;;;-0.50;64.15;100726.25;5011574;28;20408;-71
2022/03/01 02:30:40;;;;;;;12.20;7.28;;;;;;;-0.47;63.95;100729.78;4989105;28;20046;-69
2022/03/01 02:33:05;;;;;;;10.20;6.97;;;;;;;-0.40;63.06;100732.41;5010223;28;20069;-71
2022/03/01 02:35:31;;;;;;;14.05;8.07;;;;;;;-0.30;62.80;100740.28;5010892;28;20409;-71
2022/03/01 02:37:56;;;;;;;10.13;7.05;;;;;;;-0.23;62.80;100736.03;4992727;28;20030;-72
2022/03/01 02:40:22;;;;;;;13.45;9.10;;;;;;;-0.19;62.59;100726.59;5008809;28;20073;-71
2022/03/01 02:42:48;;;;;;;11.70;8.38;;;;;;;-0.26;63.59;100725.66;5008907;28;20037;-70
2022/03/01 02:45:16;;;;;;;12.57;7.70;;;;;;;-0.26;63.50;100718.75;5009372;28;20096;-70
2022/03/01 02:47:43;;;;;;;12.40;7.55;;;;;;;-0.23;63.35;100721.34;5009534;28;20041;-70
2022/03/01 02:50:09;;;;;;;11.77;6.97;;;;;;;-0.19;62.92;100727.47;5009024;28;20038;-70
2022/03/01 02:52:35;;;;;;;12.90;7.28;;;;;;;-0.18;62.85;100721.41;5009563;28;23749;-70
2022/03/01 02:55:02;;;;;;;12.10;7.45;;;;;;;-0.24;63.47;100722.22;5017267;28;20038;-69
2022/03/01 02:57:27;;;;;;;13.77;7.53;;;;;;;-0.30;63.06;100719.56;5015547;28;20053;-70
2022/03/01 02:59:53;;;;;;;14.38;8.60;;;;;;;-0.37;63.37;100704.84;5017194;28;20034;-70
2022/03/01 03:02:19;;;;;;;14.18;9.18;;;;;;;-0.42;63.35;100701.28;5026921;28;20036;-70
2022/03/01 03:04:45;;;;;;;13.27;8.38;;;;;;;-0.45;63.43;100704.72;5021817;28;20046;-70
2022/03/01 03:07:11;;;;;;;13.20;8.77;;;;;;;-0.47;64.04;100698.69;5007122;28;20552;-70
2022/03/01 03:09:36;;;;;;;13.13;7.40;;;;;;;-0.44;63.24;100693.53;5009468;28;20045;-70
2022/03/01 03:12:02;;;;;;;13.55;8.48;;;;;;;-0.36;63.02;100697.94;5006155;28;20026;-70
2022/03/01 03:14:28;;;;;;;12.95;7.50;;;;;;;-0.32;62.33;100700.56;4992048;28;20505;-71
2022/03/01 03:16:53;;;;;;;14.80;7.68;;;;;;;-0.25;62.58;100704.97;4992699;28;20037;-71
2022/03/01 03:19:19;;;;;;;13.50;8.50;;;;;;;-0.18;61.78;100697.22;5009912;28;20068;-71
2022/03/01 03:21:45;;;;;;;12.52;8.20;;;;;;;-0.14;62.27;100693.81;4992190;28;20034;-70
2022/03/01 03:24:11;;;;;;;16.85;10.30;;;;;;;-0.22;62.48;100698.94;5010265;28;20121;-70
2022/03/01 03:26:36;;;;;;;19.75;10.35;;;;;;;-0.29;63.72;100699.72;5008382;28;20062;-71
2022/03/01 03:29:02;;;;;;;17.75;9.55;;;;;;;-0.32;63.53;100690.19;5019323;28;20042;-70
2022/03/01 03:31:28;;;;;;;14.02;8.02;;;;;;;-0.30;64.42;100687.59;5018951;28;20034;-70
2022/03/01 03:33:53;;;;;;;13.05;8.05;;;;;;;-0.35;64.53;100684.97;5012781;28;20052;-70
2022/03/01 03:36:18;;;;;;;14.60;8.52;;;;;;;-0.38;64.58;100689.25;5012608;28;20437;-69
2022/03/01 03:38:44;;;;;;;14.93;8.13;;;;;;;-0.32;63.78;100679.84;4995130;28;20116;-69
2022/03/01 03:41:09;;;;;;;15.30;9.00;;;;;;;-0.35;64.79;100674.59;5011554;28;20038;-69
2022/03/01 03:43:34;;;;;;;18.55;8.40;;;;;;;-0.41;64.15;100671.97;5011249;28;20041;-70
2022/03/01 03:46:00;;;;;;;14.73;9.27;;;;;;;-0.44;63.93;100664.19;4994468;28;20056;-69
2022/03/01 03:48:26;;;;;;;17.38;9.95;;;;;;;-0.46;64.55;100674.50;4994898;28;20101;-72
2022/03/01 03:50:51;;;;;;;11.65;8.63;;;;;;;-0.49;64.78;100674.50;5011078;28;20044;-70
2022/03/01 03:53:16;;;;;;;14.60;8.02;;;;;;;-0.48;65.21;100683.13;5011792;28;20030;-70
2022/03/01 03:55:42;;;;;;;11.25;6.72;;;;;;;-0.45;65.17;100691.78;5012615;28;20040;-69
2022/03/01 03:58:07;;;;;;;14.27;7.25;;;;;;;-0.41;64.84;100692.69;5012270;28;20029;-70
2022/03/01 04:00:33;;;;;;;14.35;8.30;;;;;;;-0.38;65.45;100692.72;5011898;28;20038;-70
2022/03/01 04:02:58;;;;;;;15.32;9.75;;;;;;;-0.43;65.42;100697.84;5011624;28;20029;-70
2022/03/01 04:05:24;;;;;;;13.80;9.50;;;;;;;-0.49;65.41;100697.81;5011953;28;20084;-71
2022/03/01 04:07:49;;;;;;;12.20;8.35;;;;;;;-0.58;65.76;100694.25;5011145;28;20508;-71
2022/03/01 04:10:16;;;;;;;14.25;8.32;;;;;;;-0.63;66.37;100694.19;5011903;28;20038;-71
2022/03/01 04:12:41;;;;;;;13.63;8.75;;;;;;;-0.75;66.83;100694.91;5008019;28;20443;-71
2022/03/01 04:15:08;;;;;;;19.45;9.80;;;;;;;-0.79;66.92;100692.28;5012492;28;20029;-71
2022/03/01 04:17:34;;;;;;;14.57;9.05;;;;;;;-0.74;66.10;100683.72;4993882;28;20033;-70
2022/03/01 04:20:00;;;;;;;14.68;9.07;;;;;;;-0.69;65.47;100684.66;5011563;28;20080;-71
2022/03/01 04:22:26;;;;;;;15.20;8.45;;;;;;;-0.67;65.62;100682.06;5010134;28;20034;-70
2022/03/01 04:24:51;;;;;;;14.07;8.60;;;;;;;-0.67;65.75;100682.91;5010922;28;20041;-69
2022/03/01 04:27:17;;;;;;;15.75;8.73;;;;;;;-0.68;65.74;100681.19;5011602;28;20084;-69
2022/03/01 04:29:43;;;;;;;15.45;7.68;;;;;;;-0.63;65.47;100682.97;5011598;28;20042;-71
2022/03/01 04:32:09;;;;;;;13.68;7.85;;;;;;;-0.58;65.70;100683.88;5010888;28;20030;-69
2022/03/01 04:34:35;;;;;;;11.52;7.30;;;;;;;-0.49;65.17;100687.44;5012565;28;20116;-70
2022/03/01 04:37:00;;;;;;;13.70;8.43;;;;;;;-0.44;65.04;100674.53;5011688;28;20121;-70
2022/03/01 04:39:25;;;;;;;16.75;8.88;;;;;;;-0.51;65.52;100672.75;5011020;28;20563;-70
2022/03/01 04:41:51;;;;;;;16.30;9.93;;;;;;;-0.51;65.00;100670.16;5010060;28;20910;-70
2022/03/01 04:44:16;;;;;;;13.88;8.90;;;;;;;-0.52;65.43;100670.97;5010924;28;20043;-71
2022/03/01 04:46:42;;;;;;;18.48;10.30;;;;;;;-0.44;65.20;100671.94;5011032;28;20041;-70
2022/03/01 04:49:07;;;;;;;13.85;8.18;;;;;;;-0.34;64.85;100668.59;5010293;28;20030;-70
2022/03/01 04:51:33;;;;;;;13.45;8.68;;;;;;;-0.25;64.81;100675.56;5010176;28;20401;-71
2022/03/01 04:53:59;;;;;;;16.08;9.77;;;;;;;-0.18;65.29;100677.34;5010625;28;20415;-71
2022/03/01 04:56:25;;;;;;;17.80;9.23;;;;;;;-0.12;64.64;100677.44;5010827;28;20037;-71
2022/03/01 04:58:52;;;;;;;13.30;8.63;;;;;;;-0.16;65.55;100674.78;5010470;28;20562;-70
2022/03/01 05:01:17;;;;;;;17.13;10.38;;;;;;;-0.15;65.97;100664.41;5011050;28;20038;-70
2022/03/01 05:03:42;;;;;;;20.20;11.82;;;;;;;-0.19;65.74;100667.00;5010745;28;20041;-70
2022/03/01 05:06:08;;;;;;;14.00;9.15;;;;;;;-0.26;66.04;100663.47;5010588;28;20088;-71
2022/03/01 05:08:33;;;;;;;18.73;10.50;;;;;;;-0.27;66.44;100666.91;5010450;28;20034;-70
2022/03/01 05:11:00;;;;;;;16.73;10.82;;;;;;;-0.26;66.69;100668.66;5009731;28;20096;-70
2022/03/01 05:13:26;;;;;;;21.45;11.20;;;;;;;-0.30;66.50;100665.16;5010486;28;20041;-69
2022/03/01 05:15:52;;;;;;;15.70;10.52;;;;;;;-0.30;66.61;100665.16;5009063;28;20026;-70
2022/03/01 05:18:17;;;;;;;17.02;10.77;;;;;;;-0.27;66.80;100667.78;5010462;28;20149;-70
2022/03/01 05:20:43;;;;;;;18.50;12.38;;;;;;;-0.19;67.07;100669.59;5010308;28;20108;-70
2022/03/01 05:23:08;;;;;;;13.40;8.82;;;;;;;-0.14;66.80;100673.09;5009888;28;20034;-70
2022/03/01 05:25:34;;;;;;;21.77;11.55;;;;;;;-0.09;66.67;100667.06;5009169;28;20037;-70
2022/03/01 05:27:59;;;;;;;18.35;10.27;;;;;;;-0.05;66.76;100667.94;5010579;28;20161;-69
2022/03/01 05:30:25;;;;;;;14.15;8.68;;;;;;;0.01;65.86;100665.44;5010066;28;20049;-70
2022/03/01 05:32:51;;;;;;;16.85;11.43;;;;;;;0.03;66.49;100665.44;5010277;28;20041;-70
2022/03/01 05:35:22;;;;;;;14.20;9.68;;;;;;;0.02;66.60;100674.94;5009185;28;20088;-69
2022/03/01 05:37:49;;;;;;;14.98;8.93;;;;;;;0.12;65.91;100681.06;5009767;28;20034;-70
2022/03/01 05:40:15;;;;;;;13.60;8.10;;;;;;;0.20;65.80;100676.81;5009583;28;20041;-70
2022/03/01 05:42:40;;;;;;;15.25;9.68;;;;;;;0.28;65.25;100666.50;5010782;28;20037;-70
2022/03/01 05:45:06;;;;;;;14.18;9.02;;;;;;;0.34;65.07;100661.34;5010986;28;20034;-70
2022/03/01 05:47:32;;;;;;;13.82;8.98;;;;;;;0.35;65.31;100665.69;5009584;28;20394;-71
2022/03/01 05:49:58;;;;;;;15.18;9.52;;;;;;;0.40;65.60;100663.97;5009956;28;20038;-71
2022/03/01 05:52:24;;;;;;;15.88;8.98;;;;;;;0.52;65.23;100666.66;5009234;28;20065;-71
2022/03/01 05:54:49;;;;;;;17.45;10.60;;;;;;;0.55;64.54;100669.25;5009548;28;20517;-70
2022/03/01 05:57:15;;;;;;;14.98;9.98;;;;;;;0.50;65.40;100667.50;5009229;28;20037;-71
2022/03/01 05:59:40;;;;;;;15.98;8.50;;;;;;;0.51;65.08;100669.22;4992397;28;20047;-71
2022/03/01 06:02:06;;;;;;;15.60;10.18;;;;;;;0.48;65.68;100662.28;4991329;28;20034;-70
2022/03/01 06:04:31;;;;;;;14.48;9.57;;;;;;;0.53;66.16;100664.91;4992144;28;20045;-70
2022/03/01 06:06:57;;;;;;;19.40;9.07;;;;;;;0.48;66.56;100666.63;5009255;28;20034;-69
2022/03/01 06:09:22;;;;;;;19.55;9.73;;;;;;;0.51;66.26;100667.50;5009411;28;20050;-69
2022/03/01 06:11:47;;;;;;;15.77;10.45;;;;;;;0.51;66.99;100664.91;5009517;28;20034;-71
2022/03/01 06:14:13;;;;;;;16.98;10.10;;;;;;;0.54;66.58;100669.22;4991877;28;20481;-71
2022/03/01 06:16:39;;;;;;;15.55;10.90;;;;;;;0.55;67.10;100666.66;5009407;28;20474;-69
2022/03/01 06:19:04;;;;;;;16.20;10.60;;;;;;;0.56;66.36;100670.13;5009815;28;20470;-72
2022/03/01 06:21:30;;;;;;;14.82;10.77;;;;;;;0.58;66.34;100678.78;5008761;28;20413;-71
2022/03/01 06:23:56;;;;;;;21.77;11.20;;;;;;;0.63;66.15;100677.09;5009068;28;20044;-69
2022/03/01 06:26:22;;;;;;;17.60;9.82;;;;;;;0.62;66.88;100678.81;5008960;28;20124;-72
2022/03/01 06:28:50;;;;;;;16.92;10.93;;;;;;;0.63;65.84;100683.13;5010256;28;20094;-71
2022/03/01 06:31:15;;;;;;;16.33;10.35;;;;;;;0.63;66.29;100680.53;5008855;28;20501;-71
2022/03/01 06:33:41;;;;;;;19.92;12.40;;;;;;;0.71;66.56;100687.50;5009557;28;20038;-71
2022/03/01 06:36:06;;;;;;;18.58;12.00;;;;;;;0.71;66.05;100684.91;5010019;28;20405;-71
2022/03/01 06:38:32;;;;;;;15.95;10.98;;;;;;;0.68;66.92;100683.16;4997412;28;20046;-70
2022/03/01 06:40:57;;;;;;;14.77;9.50;;;;;;;0.68;67.46;100688.34;4970917;28;20046;-72
2022/03/01 06:43:23;;;;;;;16.95;11.52;;;;;;;0.68;66.82;100680.56;4970817;28;20126;-72
2022/03/01 06:45:48;;;;;;;17.75;10.70;;;;;;;0.74;66.55;100685.81;4991779;28;20044;-71
2022/03/01 06:48:14;;;;;;;17.52;10.15;;;;;;;0.81;66.63;100690.16;4974095;28;20039;-72
2022/03/01 06:50:39;;;;;;;16.98;11.05;;;;;;;0.83;66.15;100690.16;4992472;28;20053;-72
2022/03/01 06:53:06;;;;;;;16.02;9.65;;;;;;;0.84;67.03;100691.91;4999859;28;20046;-72
2022/03/01 06:55:31;;;;;;;14.10;9.40;;;;;;;0.86;66.25;100682.38;5005089;28;20406;-72
2022/03/01 06:57:58;;;;;;;18.00;12.02;;;;;;;0.95;65.74;100691.94;4993751;28;20043;-71
2022/03/01 07:00:23;;;;;;;20.80;12.27;;;;;;;0.99;65.92;100698.91;4990689;28;20042;-70
2022/03/01 07:02:49;;;;;;;16.02;10.32;;;;;;;1.01;66.24;100687.66;4991028;28;20665;-72
2022/03/01 07:05:15;;;;;;;15.93;11.07;;;;;;;1.06;66.21;100685.94;5010344;28;20069;-71
2022/03/01 07:07:41;;;;;;;22.25;12.93;;;;;;;1.11;65.68;100691.16;5010317;28;20060;-72
2022/03/01 07:10:08;;;;;;;26.00;14.02;;;;;;;1.12;65.83;100692.88;5013386;28;20053;-71
2022/03/01 07:12:34;;;;;;;19.42;13.27;;;;;;;1.16;65.56;100692.06;5013683;28;20092;-72
2022/03/01 07:14:59;;;;;;;20.00;12.93;;;;;;;1.18;65.54;100690.34;5014410;28;20026;-71
2022/03/01 07:17:25;;;;;;;19.02;12.52;;;;;;;1.19;65.83;100683.41;5014437;28;20041;-72
2022/03/01 07:19:50;;;;;;;20.00;13.30;;;;;;;1.23;65.95;100683.41;5020456;28;20069;-71
2022/03/01 07:22:16;;;;;;;20.85;13.65;;;;;;;1.22;65.68;100678.22;5031752;28;20040;-71
2022/03/01 07:24:42;;;;;;;15.18;10.95;;;;;;;1.23;65.74;100679.94;5033605;28;20038;-72
2022/03/01 07:27:08;;;;;;;21.13;13.20;;;;;;;1.25;65.90;100680.81;5017143;28;20041;-72
2022/03/01 07:29:33;;;;;;;20.05;11.77;;;;;;;1.29;65.66;100679.97;5013113;28;20465;-73
2022/03/01 07:31:59;;;;;;;18.05;11.43;;;;;;;1.33;65.36;100676.53;5012484;28;20030;-72
2022/03/01 07:34:25;;;;;;;18.08;12.98;;;;;;;1.45;65.26;100679.16;4994952;28;20038;-71
2022/03/01 07:36:51;;;;;;;20.15;12.73;;;;;;;1.58;64.92;100686.97;5012696;28;20037;-72
2022/03/01 07:39:16;;;;;;;20.17;11.10;;;;;;;1.71;64.46;100691.31;5012859;28;20482;-71
2022/03/01 07:41:42;;;;;;;15.88;9.95;;;;;;;1.92;63.80;100691.34;5011343;28;20032;-70
2022/03/01 07:44:07;;;;;;;20.83;11.23;;;;;;;2.22;63.20;100697.41;5010487;28;20060;-70
2022/03/01 07:46:33;;;;;;;21.02;13.52;;;;;;;2.49;62.50;100691.31;5005831;28;20042;-71
2022/03/01 07:48:59;;;;;;;20.08;10.43;;;;;;;2.72;62.65;100686.06;4982553;28;20034;-71
2022/03/01 07:51:24;;;;;;;17.90;12.80;;;;;;;2.97;61.41;100679.03;5011326;28;20046;-70
2022/03/01 07:53:51;;;;;;;20.33;11.43;;;;;;;3.30;61.00;100684.09;5010760;28;20113;-71
2022/03/01 07:56:20;;;;;;;15.75;10.20;;;;;;;3.55;60.84;100687.44;4994798;28;20096;-71
2022/03/01 07:58:46;;;;;;;17.00;11.88;;;;;;;3.88;60.25;100683.72;5011226;28;20033;-71
2022/03/01 08:01:11;;;;;;;19.38;12.27;;;;;;;4.18;59.24;100681.75;5011471;28;20096;-70
2022/03/01 08:03:37;;;;;;;19.17;11.48;;;;;;;4.46;58.32;100688.47;5011671;28;20053;-70
2022/03/01 08:06:02;;;;;;;15.43;11.38;;;;;;;4.78;56.96;100681.19;5011800;28;20120;-70
2022/03/01 08:08:27;;;;;;;22.45;13.13;;;;;;;5.05;55.16;100678.25;5012803;28;20120;-71
2022/03/01 08:10:53;;;;;;;15.05;9.88;;;;;;;5.28;53.24;100677.94;5011678;28;20040;-70
2022/03/01 08:13:18;;;;;;;12.45;8.38;;;;;;;5.51;53.79;100676.75;5012123;28;20117;-68
2022/03/01 08:15:43;;;;;;;17.05;9.57;;;;;;;5.79;49.09;100679.84;5012184;28;20034;-68
2022/03/01 08:18:09;;;;;;;14.35;9.40;;;;;;;6.10;48.03;100682.00;5011642;28;20049;-67
2022/03/01 08:20:35;;;;;;;11.82;7.35;;;;;;;6.40;47.80;100680.66;5010800;28;20038;-67
2022/03/01 08:23:02;;;;;;;13.18;8.68;;;;;;;6.62;45.48;100679.34;5011259;28;20045;-68
2022/03/01 08:25:28;;;;;;;18.08;8.82;;;;;;;6.84;46.95;100687.69;5011865;28;20029;-68
2022/03/01 08:27:53;;;;;;;15.48;9.10;;;;;;;7.00;43.75;100674.25;5010789;28;20176;-67
2022/03/01 08:30:18;;;;;;;16.05;9.45;;;;;;;7.13;41.50;100683.59;5002194;28;20556;-67
2022/03/01 08:32:46;;;;;;;11.43;7.65;;;;;;;7.29;43.26;100690.25;5010919;28;20370;-68
2022/03/01 08:35:11;;;;;;;20.17;10.43;;;;;;;7.41;42.11;100686.50;5011449;28;20029;-69
2022/03/01 08:37:37;;;;;;;14.95;8.80;;;;;;;7.57;41.25;100688.78;4993945;28;20037;-68
2022/03/01 08:40:04;;;;;;;15.40;8.82;;;;;;;7.71;39.79;100697.22;4993728;28;20033;-69
2022/03/01 08:42:29;;;;;;;15.82;8.65;;;;;;;7.89;40.23;100709.03;5009947;28;20120;-69
2022/03/01 08:44:55;;;;;;;10.40;7.80;;;;;;;8.03;39.17;100708.72;4960028;28;20026;-68
2022/03/01 08:47:20;;;;;;;14.02;8.55;;;;;;;8.14;39.58;100707.53;4991749;28;20745;-68
2022/03/01 08:49:46;;;;;;;15.45;8.07;;;;;;;8.25;38.93;100714.31;4992111;28;20049;-68
2022/03/01 08:52:11;;;;;;;12.98;7.68;;;;;;;8.40;39.34;100713.13;4991020;28;20153;-71
2022/03/01 08:54:36;;;;;;;29.95;12.27;;;;;;;8.52;39.17;100713.66;4998658;28;20485;-72
2022/03/01 08:57:02;;;;;;;16.30;10.70;;;;;;;8.56;38.36;100709.16;4957754;28;20038;-71
2022/03/01 08:59:28;;;;;;;15.35;9.10;;;;;;;8.51;38.16;100696.16;5000256;28;20121;-71
2022/03/01 09:01:53;;;;;;;17.20;9.75;;;;;;;8.44;37.69;100696.34;4956628;28;21958;-71
2022/03/01 09:04:19;;;;;;;11.95;7.68;;;;;;;8.34;37.05;100675.56;4982835;28;20038;-71
2022/03/01 09:06:44;;;;;;;16.13;7.75;;;;;;;8.27;37.78;100678.34;5000463;28;20042;-71
2022/03/01 09:09:09;;;;;;;10.45;7.13;;;;;;;8.28;38.76;100685.34;4989573;28;20069;-71
2022/03/01 09:11:35;;;;;;;10.85;6.93;;;;;;;8.35;37.93;100682.53;5007281;28;20199;-70
2022/03/01 09:14:00;;;;;;;20.23;9.40;;;;;;;8.44;39.46;100684.09;5008544;28;20026;-70
2022/03/01 09:16:26;;;;;;;12.25;7.72;;;;;;;8.76;39.65;100696.38;5009564;28;20557;-72
2022/03/01 09:18:51;;;;;;;22.88;9.05;;;;;;;9.33;37.59;100694.78;5008812;28;20622;-71
2022/03/01 09:21:16;;;;;;;31.95;14.00;;;;;;;9.85;35.05;100695.81;5009435;28;20038;-71
2022/03/01 09:23:43;;;;;;;15.70;8.88;;;;;;;11.10;33.03;100692.47;5008200;28;20124;-70
2022/03/01 09:26:08;;;;;;;30.70;12.77;;;;;;;12.57;32.00;100691.03;5009163;28;20113;-71
2022/03/01 09:28:34;;;;;;;19.63;10.80;;;;;;;13.91;30.77;100690.28;5008935;28;20113;-71
2022/03/01 09:31:00;;;;;;;12.88;8.45;;;;;;;14.72;26.94;100688.00;5007835;28;20401;-70
2022/03/01 09:33:25;;;;;;;18.05;8.40;;;;;;;15.24;26.42;100690.56;5008982;28;20046;-71
2022/03/01 09:35:51;;;;;;;12.15;8.82;;;;;;;15.38;26.11;100687.13;5008405;28;20034;-71
2022/03/01 09:38:16;;;;;;;12.10;8.80;;;;;;;15.62;26.76;100698.22;5001224;28;20080;-70
2022/03/01 09:40:46;;;;;;;12.52;9.82;;;;;;;15.65;25.38;100704.22;4990454;28;20038;-70
2022/03/01 09:43:12;;;;;;;16.10;8.52;;;;;;;15.00;26.88;100693.56;5009544;28;20061;-69
2022/03/01 09:45:37;;;;;;;27.15;10.48;;;;;;;14.38;27.89;100698.50;5009263;28;20057;-71
2022/03/01 09:48:03;;;;;;;18.25;9.05;;;;;;;13.81;28.13;100699.56;4992370;28;20456;-70
2022/03/01 09:50:29;;;;;;;17.95;11.32;;;;;;;13.46;28.56;100697.69;5009325;28;20107;-70
2022/03/01 09:52:56;;;;;;;12.73;9.23;;;;;;;12.85;28.63;100703.06;5009190;28;20048;-72
2022/03/01 09:55:22;;;;;;;11.30;9.35;;;;;;;12.56;29.04;100689.31;5009946;28;20034;-71
2022/03/01 09:57:47;;;;;;;9.80;8.27;;;;;;;12.28;29.68;100692.28;5010224;28;20037;-71
2022/03/01 10:00:14;;;;;;;13.15;9.00;;;;;;;11.91;30.08;100695.53;4992073;28;20543;-71
2022/03/01 10:02:42;;;;;;;16.48;8.68;;;;;;;11.71;30.57;100686.59;5009087;28;20077;-71
2022/03/01 10:05:09;;;;;;;10.93;7.65;;;;;;;11.52;30.50;100691.75;4991674;28;20421;-70
2022/03/01 10:07:35;;;;;;;12.95;8.32;;;;;;;11.36;30.44;100696.75;5009501;28;20129;-70
2022/03/01 10:10:12;;;;;;;11.80;8.07;;;;;;;11.21;30.93;100699.97;5008916;28;20134;-70
2022/03/01 10:12:38;;;;;;;10.43;7.57;;;;;;;10.93;30.58;100700.13;5003106;28;20042;-70
2022/03/01 10:15:07;;;;;;;8.82;6.85;;;;;;;10.81;31.34;100705.84;4996301;28;20169;-72
2022/03/01 10:17:37;;;;;;;10.60;7.80;;;;;;;10.89;31.12;100709.91;5006525;28;20121;-70
2022/03/01 10:20:08;;;;;;;14.52;8.05;;;;;;;10.99;30.95;100718.34;5001571;28;20128;-71
2022/03/01 10:22:37;;;;;;;11.32;7.72;;;;;;;11.06;30.76;100704.03;5001940;28;20038;-71
2022/03/01 10:25:07;;;;;;;15.02;7.50;;;;;;;11.05;31.13;100714.63;5004467;28;20030;-71
2022/03/01 10:27:34;;;;;;;12.48;7.88;;;;;;;11.11;31.20;100715.28;5006630;28;20121;-71
2022/03/01 10:30:00;;;;;;;14.27;8.35;;;;;;;11.11;30.95;100712.63;5006673;28;20405;-70
2022/03/01 10:32:26;;;;;;;10.32;7.47;;;;;;;11.14;30.57;100716.94;5005535;28;20048;-71
2022/03/01 10:35:08;;;;;;;10.38;7.53;;;;;;;11.24;31.07;100718.31;5007309;28;20042;-71
2022/03/01 10:37:37;;;;;;;10.23;8.05;;;;;;;11.21;30.73;100715.81;5006155;28;20048;-72
2022/03/01 10:40:20;;;;;;;10.50;7.28;;;;;;;11.28;31.19;100719.94;5005304;28;20176;-72
2022/03/01 10:43:04;;;;;;;21.70;9.60;;;;;;;11.35;31.77;100726.72;5007152;28;20362;-72
2022/03/01 10:45:35;;;;;;;17.55;9.60;;;;;;;11.33;31.38;100731.19;5009950;28;20034;-72
2022/03/01 10:48:01;;;;;;;45.70;11.98;;;;;;;11.37;32.48;100730.16;5010388;28;20061;-72
2022/03/01 10:50:27;;;;;;;41.47;14.95;;;;;;;11.28;31.96;100727.84;5010581;28;20497;-71
2022/03/01 10:52:52;;;;;;;34.20;12.85;;;;;;;11.21;32.42;100730.78;5009467;28;20041;-71
2022/03/01 10:55:38;;;;;;;28.98;12.85;;;;;;;11.14;31.71;100731.00;4978365;28;20053;-70
2022/03/01 10:58:10;;;;;;;32.20;11.13;;;;;;;11.18;32.30;100729.13;5010672;28;20077;-71
2022/03/01 11:00:37;;;;;;;19.92;9.85;;;;;;;11.38;32.26;100731.88;5010442;28;20044;-71
2022/03/01 11:03:17;;;;;;;21.17;11.18;;;;;;;11.54;32.98;100723.38;5010004;28;20049;-71
2022/03/01 11:05:43;;;;;;;15.77;10.43;;;;;;;11.64;34.03;100716.84;5009940;28;20042;-72
2022/03/01 11:08:10;;;;;;;16.63;9.73;;;;;;;11.65;35.55;100713.25;4993405;28;20758;-71
2022/03/01 11:10:37;;;;;;;21.30;14.35;;;;;;;11.56;37.78;100717.09;5010304;28;20133;-71
2022/03/01 11:13:05;;;;;;;20.45;12.90;;;;;;;11.47;37.35;100722.75;5010462;28;20065;-70
2022/03/01 11:16:06;;;;;;;20.77;12.65;;;;;;;11.48;37.82;100711.25;5011615;28;20120;-71
2022/03/01 11:18:50;;;;;;;20.05;13.73;;;;;;;11.57;38.46;100707.44;4970599;28;20042;-71